sensor_id;sensor_type;location;lat;lon;timestamp;temperature;humidity
18694;DHT22;9477;51.414;10.362;2023-03-21T00:01:49;12.50;82.10
18694;DHT22;9477;51.414;10.362;2023-03-21T00:03:51;12.50;82.10
18694;DHT22;9477;51.414;10.362;2023-03-21T00:05:54;12.50;81.90
18694;DHT22;9477;51.414;10.362;2023-03-21T00:07:57;12.60;82.00
18694;DHT22;9477;51.414;10.362;2023-03-21T00:10:03;12.50;81.80
18694;DHT22;9477;51.414;10.362;2023-03-21T00:12:18;12.50;81.60
18694;DHT22;9477;51.414;10.362;2023-03-21T00:14:21;12.30;82.30
18694;DHT22;9477;51.414;10.362;2023-03-21T00:16:26;12.30;82.60
18694;DHT22;9477;51.414;10.362;2023-03-21T00:18:37;12.40;82.50
18694;DHT22;9477;51.414;10.362;2023-03-21T00:20:43;12.40;82.50
18694;DHT22;9477;51.414;10.362;2023-03-21T00:22:47;12.20;82.50
18694;DHT22;9477;51.414;10.362;2023-03-21T00:24:50;12.30;82.90
18694;DHT22;9477;51.414;10.362;2023-03-21T00:26:53;12.30;83.20
18694;DHT22;9477;51.414;10.362;2023-03-21T00:29:11;12.40;83.20
18694;DHT22;9477;51.414;10.362;2023-03-21T00:31:14;12.50;83.00
18694;DHT22;9477;51.414;10.362;2023-03-21T00:33:16;12.40;83.00
18694;DHT22;9477;51.414;10.362;2023-03-21T00:35:25;12.40;82.90
18694;DHT22;9477;51.414;10.362;2023-03-21T00:37:48;12.50;83.00
18694;DHT22;9477;51.414;10.362;2023-03-21T00:39:51;12.50;82.90
18694;DHT22;9477;51.414;10.362;2023-03-21T00:41:54;12.50;82.80
18694;DHT22;9477;51.414;10.362;2023-03-21T00:43:57;12.40;83.30
18694;DHT22;9477;51.414;10.362;2023-03-21T00:46:00;12.20;83.10
18694;DHT22;9477;51.414;10.362;2023-03-21T00:48:03;12.30;83.40
18694;DHT22;9477;51.414;10.362;2023-03-21T00:50:08;12.50;83.50
18694;DHT22;9477;51.414;10.362;2023-03-21T00:52:13;12.50;83.20
18694;DHT22;9477;51.414;10.362;2023-03-21T00:54:31;12.60;83.20
18694;DHT22;9477;51.414;10.362;2023-03-21T00:56:34;12.60;82.60
18694;DHT22;9477;51.414;10.362;2023-03-21T00:58:36;12.50;82.40
18694;DHT22;9477;51.414;10.362;2023-03-21T01:00:39;12.40;82.40
18694;DHT22;9477;51.414;10.362;2023-03-21T01:02:43;12.40;82.50
18694;DHT22;9477;51.414;10.362;2023-03-21T01:05:05;12.40;82.60
18694;DHT22;9477;51.414;10.362;2023-03-21T01:07:08;12.30;82.50
18694;DHT22;9477;51.414;10.362;2023-03-21T01:09:14;12.30;82.80
18694;DHT22;9477;51.414;10.362;2023-03-21T01:11:20;12.30;82.90
18694;DHT22;9477;51.414;10.362;2023-03-21T01:13:24;12.20;83.00
18694;DHT22;9477;51.414;10.362;2023-03-21T01:15:27;12.20;83.30
18694;DHT22;9477;51.414;10.362;2023-03-21T01:17:30;12.40;83.70
18694;DHT22;9477;51.414;10.362;2023-03-21T01:19:32;12.40;83.30
18694;DHT22;9477;51.414;10.362;2023-03-21T01:21:52;12.40;83.10
18694;DHT22;9477;51.414;10.362;2023-03-21T01:23:55;12.50;83.40
18694;DHT22;9477;51.414;10.362;2023-03-21T01:25:59;12.50;83.30
18694;DHT22;9477;51.414;10.362;2023-03-21T01:28:02;12.60;83.00
18694;DHT22;9477;51.414;10.362;2023-03-21T01:30:06;12.50;82.80
18694;DHT22;9477;51.414;10.362;2023-03-21T01:32:20;12.40;82.80
18694;DHT22;9477;51.414;10.362;2023-03-21T01:34:23;12.40;83.20
18694;DHT22;9477;51.414;10.362;2023-03-21T01:36:26;12.40;82.90
18694;DHT22;9477;51.414;10.362;2023-03-21T01:38:29;12.30;83.00
18694;DHT22;9477;51.414;10.362;2023-03-21T01:40:32;12.40;83.40
18694;DHT22;9477;51.414;10.362;2023-03-21T01:42:36;12.40;83.40
18694;DHT22;9477;51.414;10.362;2023-03-21T01:44:52;12.40;83.50
18694;DHT22;9477;51.414;10.362;2023-03-21T01:46:55;12.50;83.60
18694;DHT22;9477;51.414;10.362;2023-03-21T01:49:15;12.60;83.50
18694;DHT22;9477;51.414;10.362;2023-03-21T01:51:20;12.70;83.30
18694;DHT22;9477;51.414;10.362;2023-03-21T01:53:26;12.70;83.20
18694;DHT22;9477;51.414;10.362;2023-03-21T01:55:30;12.70;83.30
18694;DHT22;9477;51.414;10.362;2023-03-21T01:57:37;12.70;83.50
18694;DHT22;9477;51.414;10.362;2023-03-21T02:00:00;12.70;83.60
18694;DHT22;9477;51.414;10.362;2023-03-21T02:02:15;12.60;83.10
18694;DHT22;9477;51.414;10.362;2023-03-21T02:04:21;12.70;83.20
18694;DHT22;9477;51.414;10.362;2023-03-21T02:06:33;12.70;83.10
18694;DHT22;9477;51.414;10.362;2023-03-21T02:08:37;12.70;83.20
18694;DHT22;9477;51.414;10.362;2023-03-21T02:10:42;12.80;83.30
18694;DHT22;9477;51.414;10.362;2023-03-21T02:12:46;12.80;83.10
18694;DHT22;9477;51.414;10.362;2023-03-21T02:14:50;12.70;82.60
18694;DHT22;9477;51.414;10.362;2023-03-21T02:17:01;12.70;82.70
18694;DHT22;9477;51.414;10.362;2023-03-21T02:19:25;12.70;82.50
18694;DHT22;9477;51.414;10.362;2023-03-21T02:27:07;12.80;82.60
18694;DHT22;9477;51.414;10.362;2023-03-21T02:29:36;12.90;82.60
18694;DHT22;9477;51.414;10.362;2023-03-21T02:31:45;12.90;82.50
18694;DHT22;9477;51.414;10.362;2023-03-21T02:39:09;12.80;82.50
18694;DHT22;9477;51.414;10.362;2023-03-21T02:41:16;12.70;82.20
18694;DHT22;9477;51.414;10.362;2023-03-21T02:43:27;12.80;82.60
18694;DHT22;9477;51.414;10.362;2023-03-21T02:45:35;12.80;82.50
18694;DHT22;9477;51.414;10.362;2023-03-21T02:47:42;12.80;82.40
18694;DHT22;9477;51.414;10.362;2023-03-21T02:49:51;12.80;82.30
18694;DHT22;9477;51.414;10.362;2023-03-21T02:51:59;12.80;82.30
18694;DHT22;9477;51.414;10.362;2023-03-21T02:54:17;12.80;82.40
18694;DHT22;9477;51.414;10.362;2023-03-21T02:56:42;12.80;82.50
18694;DHT22;9477;51.414;10.362;2023-03-21T02:58:47;12.80;82.50
18694;DHT22;9477;51.414;10.362;2023-03-21T03:00:51;12.90;82.60
18694;DHT22;9477;51.414;10.362;2023-03-21T03:02:56;12.90;82.50
18694;DHT22;9477;51.414;10.362;2023-03-21T03:05:13;13.00;82.40
18694;DHT22;9477;51.414;10.362;2023-03-21T03:07:35;12.90;82.30
18694;DHT22;9477;51.414;10.362;2023-03-21T03:09:53;12.90;82.50
18694;DHT22;9477;51.414;10.362;2023-03-21T03:12:03;12.90;82.50
18694;DHT22;9477;51.414;10.362;2023-03-21T03:14:20;12.90;82.60
18694;DHT22;9477;51.414;10.362;2023-03-21T03:16:55;13.00;82.80
18694;DHT22;9477;51.414;10.362;2023-03-21T03:19:04;13.00;82.80
18694;DHT22;9477;51.414;10.362;2023-03-21T03:21:13;13.00;82.90
18694;DHT22;9477;51.414;10.362;2023-03-21T03:23:24;13.10;83.10
18694;DHT22;9477;51.414;10.362;2023-03-21T03:25:34;13.00;83.10
18694;DHT22;9477;51.414;10.362;2023-03-21T03:27:44;13.00;83.30
18694;DHT22;9477;51.414;10.362;2023-03-21T03:29:49;13.00;83.30
18694;DHT22;9477;51.414;10.362;2023-03-21T03:31:57;13.00;83.30
18694;DHT22;9477;51.414;10.362;2023-03-21T03:34:05;13.00;83.80
18694;DHT22;9477;51.414;10.362;2023-03-21T03:36:11;13.00;82.80
18694;DHT22;9477;51.414;10.362;2023-03-21T03:38:34;12.80;82.30
18694;DHT22;9477;51.414;10.362;2023-03-21T03:40:40;12.60;82.50
18694;DHT22;9477;51.414;10.362;2023-03-21T03:42:47;12.60;83.10
18694;DHT22;9477;51.414;10.362;2023-03-21T03:44:51;12.60;82.80
18694;DHT22;9477;51.414;10.362;2023-03-21T03:46:58;12.60;83.30
18694;DHT22;9477;51.414;10.362;2023-03-21T03:49:04;12.60;83.20
18694;DHT22;9477;51.414;10.362;2023-03-21T03:51:10;12.70;83.10
18694;DHT22;9477;51.414;10.362;2023-03-21T03:53:18;12.50;82.50
18694;DHT22;9477;51.414;10.362;2023-03-21T03:55:25;12.50;82.90
18694;DHT22;9477;51.414;10.362;2023-03-21T03:57:29;12.20;83.00
18694;DHT22;9477;51.414;10.362;2023-03-21T03:59:33;12.10;83.30
18694;DHT22;9477;51.414;10.362;2023-03-21T04:01:38;12.00;83.80
18694;DHT22;9477;51.414;10.362;2023-03-21T04:03:44;12.00;84.00
18694;DHT22;9477;51.414;10.362;2023-03-21T04:05:52;12.10;84.20
18694;DHT22;9477;51.414;10.362;2023-03-21T04:07:54;12.20;84.00
18694;DHT22;9477;51.414;10.362;2023-03-21T04:09:57;12.30;83.80
18694;DHT22;9477;51.414;10.362;2023-03-21T04:12:02;12.30;83.70
18694;DHT22;9477;51.414;10.362;2023-03-21T04:14:05;12.40;83.70
18694;DHT22;9477;51.414;10.362;2023-03-21T04:16:08;12.50;83.50
18694;DHT22;9477;51.414;10.362;2023-03-21T04:18:12;12.40;83.10
18694;DHT22;9477;51.414;10.362;2023-03-21T04:20:15;12.40;83.30
18694;DHT22;9477;51.414;10.362;2023-03-21T04:22:34;12.30;83.10
18694;DHT22;9477;51.414;10.362;2023-03-21T04:24:38;12.30;83.50
18694;DHT22;9477;51.414;10.362;2023-03-21T04:26:42;12.30;83.70
18694;DHT22;9477;51.414;10.362;2023-03-21T04:28:47;12.40;83.70
18694;DHT22;9477;51.414;10.362;2023-03-21T04:30:50;12.30;83.50
18694;DHT22;9477;51.414;10.362;2023-03-21T04:33:05;12.30;83.60
18694;DHT22;9477;51.414;10.362;2023-03-21T04:35:09;12.20;83.80
18694;DHT22;9477;51.414;10.362;2023-03-21T04:37:12;12.30;84.10
18694;DHT22;9477;51.414;10.362;2023-03-21T04:39:16;12.40;84.00
18694;DHT22;9477;51.414;10.362;2023-03-21T04:41:19;12.50;84.40
18694;DHT22;9477;51.414;10.362;2023-03-21T04:43:22;12.50;83.80
18694;DHT22;9477;51.414;10.362;2023-03-21T04:45:26;12.60;83.80
18694;DHT22;9477;51.414;10.362;2023-03-21T04:47:29;12.50;83.30
18694;DHT22;9477;51.414;10.362;2023-03-21T04:49:32;12.50;83.40
18694;DHT22;9477;51.414;10.362;2023-03-21T04:51:36;12.50;83.50
18694;DHT22;9477;51.414;10.362;2023-03-21T04:53:39;12.50;83.60
18694;DHT22;9477;51.414;10.362;2023-03-21T04:55:45;12.60;83.50
18694;DHT22;9477;51.414;10.362;2023-03-21T04:57:51;12.50;83.10
18694;DHT22;9477;51.414;10.362;2023-03-21T04:59:54;12.50;83.40
18694;DHT22;9477;51.414;10.362;2023-03-21T05:01:58;12.60;83.60
18694;DHT22;9477;51.414;10.362;2023-03-21T05:04:03;12.70;83.60
18694;DHT22;9477;51.414;10.362;2023-03-21T05:06:07;12.80;83.60
18694;DHT22;9477;51.414;10.362;2023-03-21T05:08:10;12.80;83.80
18694;DHT22;9477;51.414;10.362;2023-03-21T05:10:13;12.80;83.90
18694;DHT22;9477;51.414;10.362;2023-03-21T05:12:17;12.90;84.00
18694;DHT22;9477;51.414;10.362;2023-03-21T05:14:22;12.90;83.90
18694;DHT22;9477;51.414;10.362;2023-03-21T05:16:25;12.80;84.00
18694;DHT22;9477;51.414;10.362;2023-03-21T05:18:32;12.80;84.20
18694;DHT22;9477;51.414;10.362;2023-03-21T05:20:40;12.80;84.30
18694;DHT22;9477;51.414;10.362;2023-03-21T05:22:44;12.80;84.50
18694;DHT22;9477;51.414;10.362;2023-03-21T05:24:51;12.80;84.50
18694;DHT22;9477;51.414;10.362;2023-03-21T05:26:55;12.80;84.60
18694;DHT22;9477;51.414;10.362;2023-03-21T05:29:02;12.80;84.70
18694;DHT22;9477;51.414;10.362;2023-03-21T05:31:06;12.80;84.80
18694;DHT22;9477;51.414;10.362;2023-03-21T05:33:09;12.80;84.80
18694;DHT22;9477;51.414;10.362;2023-03-21T05:35:13;12.90;84.90
18694;DHT22;9477;51.414;10.362;2023-03-21T05:37:17;12.90;84.70
18694;DHT22;9477;51.414;10.362;2023-03-21T05:39:20;12.80;84.60
18694;DHT22;9477;51.414;10.362;2023-03-21T05:41:23;12.80;84.60
18694;DHT22;9477;51.414;10.362;2023-03-21T05:43:25;12.80;84.60
18694;DHT22;9477;51.414;10.362;2023-03-21T05:45:28;12.70;84.60
18694;DHT22;9477;51.414;10.362;2023-03-21T05:47:31;12.70;84.70
18694;DHT22;9477;51.414;10.362;2023-03-21T05:49:34;12.60;84.70
18694;DHT22;9477;51.414;10.362;2023-03-21T05:51:38;12.70;85.10
18694;DHT22;9477;51.414;10.362;2023-03-21T05:53:41;12.80;85.20
18694;DHT22;9477;51.414;10.362;2023-03-21T05:55:44;12.90;85.10
18694;DHT22;9477;51.414;10.362;2023-03-21T05:57:46;12.90;85.10
18694;DHT22;9477;51.414;10.362;2023-03-21T05:59:50;12.90;85.20
18694;DHT22;9477;51.414;10.362;2023-03-21T06:01:52;12.90;85.10
18694;DHT22;9477;51.414;10.362;2023-03-21T06:03:55;13.00;85.30
18694;DHT22;9477;51.414;10.362;2023-03-21T06:05:58;13.00;85.20
18694;DHT22;9477;51.414;10.362;2023-03-21T06:08:03;13.00;85.20
18694;DHT22;9477;51.414;10.362;2023-03-21T06:10:10;13.10;85.40
18694;DHT22;9477;51.414;10.362;2023-03-21T06:12:13;13.10;85.30
18694;DHT22;9477;51.414;10.362;2023-03-21T06:14:16;13.10;85.30
18694;DHT22;9477;51.414;10.362;2023-03-21T06:16:19;13.10;85.30
18694;DHT22;9477;51.414;10.362;2023-03-21T06:18:22;13.20;85.40
18694;DHT22;9477;51.414;10.362;2023-03-21T06:20:25;13.20;85.40
18694;DHT22;9477;51.414;10.362;2023-03-21T06:22:27;13.30;85.50
18694;DHT22;9477;51.414;10.362;2023-03-21T06:24:32;13.30;85.50
18694;DHT22;9477;51.414;10.362;2023-03-21T06:26:35;13.40;85.60
18694;DHT22;9477;51.414;10.362;2023-03-21T06:28:38;13.50;85.50
18694;DHT22;9477;51.414;10.362;2023-03-21T06:30:41;13.40;85.40
18694;DHT22;9477;51.414;10.362;2023-03-21T06:32:44;13.50;85.50
18694;DHT22;9477;51.414;10.362;2023-03-21T06:34:46;13.60;85.60
18694;DHT22;9477;51.414;10.362;2023-03-21T06:36:49;13.60;85.40
18694;DHT22;9477;51.414;10.362;2023-03-21T06:38:52;13.60;85.50
18694;DHT22;9477;51.414;10.362;2023-03-21T06:40:57;13.70;85.50
18694;DHT22;9477;51.414;10.362;2023-03-21T06:43:00;13.70;85.50
18694;DHT22;9477;51.414;10.362;2023-03-21T06:45:04;13.70;85.60
18694;DHT22;9477;51.414;10.362;2023-03-21T06:47:07;13.80;85.50
18694;DHT22;9477;51.414;10.362;2023-03-21T06:49:10;13.80;85.30
18694;DHT22;9477;51.414;10.362;2023-03-21T06:51:13;13.80;84.90
18694;DHT22;9477;51.414;10.362;2023-03-21T06:53:16;14.00;85.10
18694;DHT22;9477;51.414;10.362;2023-03-21T06:55:21;14.00;84.80
18694;DHT22;9477;51.414;10.362;2023-03-21T06:57:28;14.10;84.60
18694;DHT22;9477;51.414;10.362;2023-03-21T06:59:31;14.20;84.40
18694;DHT22;9477;51.414;10.362;2023-03-21T07:01:34;14.40;84.20
18694;DHT22;9477;51.414;10.362;2023-03-21T07:03:37;14.40;83.90
18694;DHT22;9477;51.414;10.362;2023-03-21T07:05:40;14.40;83.70
18694;DHT22;9477;51.414;10.362;2023-03-21T07:07:43;14.50;83.70
18694;DHT22;9477;51.414;10.362;2023-03-21T07:09:46;14.50;83.20
18694;DHT22;9477;51.414;10.362;2023-03-21T07:11:48;14.50;82.90
18694;DHT22;9477;51.414;10.362;2023-03-21T07:13:55;14.50;82.70
18694;DHT22;9477;51.414;10.362;2023-03-21T07:15:58;14.60;82.80
18694;DHT22;9477;51.414;10.362;2023-03-21T07:18:01;14.60;82.80
18694;DHT22;9477;51.414;10.362;2023-03-21T07:20:05;14.60;81.90
18694;DHT22;9477;51.414;10.362;2023-03-21T07:22:08;14.50;82.10
18694;DHT22;9477;51.414;10.362;2023-03-21T07:24:11;14.60;82.50
18694;DHT22;9477;51.414;10.362;2023-03-21T07:26:14;14.60;81.70
18694;DHT22;9477;51.414;10.362;2023-03-21T07:28:19;14.50;81.90
18694;DHT22;9477;51.414;10.362;2023-03-21T07:30:24;14.50;81.90
18694;DHT22;9477;51.414;10.362;2023-03-21T07:32:26;14.60;81.90
18694;DHT22;9477;51.414;10.362;2023-03-21T07:34:30;14.60;81.80
18694;DHT22;9477;51.414;10.362;2023-03-21T07:36:34;14.60;81.10
18694;DHT22;9477;51.414;10.362;2023-03-21T07:38:37;14.60;81.00
18694;DHT22;9477;51.414;10.362;2023-03-21T07:40:41;14.70;81.30
18694;DHT22;9477;51.414;10.362;2023-03-21T07:42:44;14.40;79.50
18694;DHT22;9477;51.414;10.362;2023-03-21T07:44:47;14.50;81.00
18694;DHT22;9477;51.414;10.362;2023-03-21T07:46:52;14.70;81.50
18694;DHT22;9477;51.414;10.362;2023-03-21T07:48:55;14.80;80.90
18694;DHT22;9477;51.414;10.362;2023-03-21T07:50:58;14.70;80.10
18694;DHT22;9477;51.414;10.362;2023-03-21T07:53:02;14.70;80.50
18694;DHT22;9477;51.414;10.362;2023-03-21T07:55:06;14.70;80.60
18694;DHT22;9477;51.414;10.362;2023-03-21T07:57:09;14.60;80.20
18694;DHT22;9477;51.414;10.362;2023-03-21T07:59:14;14.40;79.80
18694;DHT22;9477;51.414;10.362;2023-03-21T08:01:17;14.40;80.20
18694;DHT22;9477;51.414;10.362;2023-03-21T08:03:21;14.40;80.70
18694;DHT22;9477;51.414;10.362;2023-03-21T08:05:28;14.40;80.00
18694;DHT22;9477;51.414;10.362;2023-03-21T08:07:31;14.30;80.30
18694;DHT22;9477;51.414;10.362;2023-03-21T08:09:35;14.30;80.70
18694;DHT22;9477;51.414;10.362;2023-03-21T08:11:38;14.20;80.60
18694;DHT22;9477;51.414;10.362;2023-03-21T08:13:41;14.30;80.80
18694;DHT22;9477;51.414;10.362;2023-03-21T08:15:44;14.30;80.80
18694;DHT22;9477;51.414;10.362;2023-03-21T08:17:47;14.20;80.20
18694;DHT22;9477;51.414;10.362;2023-03-21T08:19:51;14.10;79.90
18694;DHT22;9477;51.414;10.362;2023-03-21T08:21:54;14.00;80.10
18694;DHT22;9477;51.414;10.362;2023-03-21T08:24:00;14.00;80.10
18694;DHT22;9477;51.414;10.362;2023-03-21T08:26:03;13.80;80.40
18694;DHT22;9477;51.414;10.362;2023-03-21T08:28:06;14.00;81.30
18694;DHT22;9477;51.414;10.362;2023-03-21T08:30:11;14.00;80.80
18694;DHT22;9477;51.414;10.362;2023-03-21T08:32:17;14.30;81.40
18694;DHT22;9477;51.414;10.362;2023-03-21T08:34:20;14.50;80.60
18694;DHT22;9477;51.414;10.362;2023-03-21T08:36:25;14.60;80.60
18694;DHT22;9477;51.414;10.362;2023-03-21T08:38:28;14.90;80.80
18694;DHT22;9477;51.414;10.362;2023-03-21T08:40:32;15.10;80.80
18694;DHT22;9477;51.414;10.362;2023-03-21T08:42:35;15.10;79.70
18694;DHT22;9477;51.414;10.362;2023-03-21T08:44:38;15.00;79.70
18694;DHT22;9477;51.414;10.362;2023-03-21T08:46:42;15.30;80.60
18694;DHT22;9477;51.414;10.362;2023-03-21T08:48:44;15.50;80.50
18694;DHT22;9477;51.414;10.362;2023-03-21T08:50:47;15.60;80.10
18694;DHT22;9477;51.414;10.362;2023-03-21T08:52:51;15.70;79.80
18694;DHT22;9477;51.414;10.362;2023-03-21T08:54:54;15.90;79.80
18694;DHT22;9477;51.414;10.362;2023-03-21T08:56:57;15.90;79.10
18694;DHT22;9477;51.414;10.362;2023-03-21T08:59:00;16.00;79.50
18694;DHT22;9477;51.414;10.362;2023-03-21T09:01:05;16.20;79.70
18694;DHT22;9477;51.414;10.362;2023-03-21T09:03:11;16.30;79.30
18694;DHT22;9477;51.414;10.362;2023-03-21T09:05:14;16.50;79.20
18694;DHT22;9477;51.414;10.362;2023-03-21T09:07:18;16.40;78.40
18694;DHT22;9477;51.414;10.362;2023-03-21T09:09:22;16.50;78.30
18694;DHT22;9477;51.414;10.362;2023-03-21T09:11:25;16.70;78.90
18694;DHT22;9477;51.414;10.362;2023-03-21T09:13:28;16.90;78.90
18694;DHT22;9477;51.414;10.362;2023-03-21T09:15:31;17.10;78.70
18694;DHT22;9477;51.414;10.362;2023-03-21T09:17:36;17.20;79.10
18694;DHT22;9477;51.414;10.362;2023-03-21T09:19:42;17.30;78.00
18694;DHT22;9477;51.414;10.362;2023-03-21T09:21:47;17.40;77.90
18694;DHT22;9477;51.414;10.362;2023-03-21T09:23:50;17.50;77.80
18694;DHT22;9477;51.414;10.362;2023-03-21T09:25:58;17.60;77.80
18694;DHT22;9477;51.414;10.362;2023-03-21T09:28:01;17.70;77.10
18694;DHT22;9477;51.414;10.362;2023-03-21T09:30:06;17.70;76.70
18694;DHT22;9477;51.414;10.362;2023-03-21T09:32:10;17.50;74.80
18694;DHT22;9477;51.414;10.362;2023-03-21T09:34:13;17.20;76.50
18694;DHT22;9477;51.414;10.362;2023-03-21T09:36:17;17.30;77.20
18694;DHT22;9477;51.414;10.362;2023-03-21T09:38:22;17.60;77.10
18694;DHT22;9477;51.414;10.362;2023-03-21T09:40:47;17.80;76.70
18694;DHT22;9477;51.414;10.362;2023-03-21T09:43:02;18.10;77.00
18694;DHT22;9477;51.414;10.362;2023-03-21T09:45:13;18.40;76.80
18694;DHT22;9477;51.414;10.362;2023-03-21T09:47:20;18.50;76.10
18694;DHT22;9477;51.414;10.362;2023-03-21T09:49:29;18.60;76.20
18694;DHT22;9477;51.414;10.362;2023-03-21T09:51:35;18.60;75.50
18694;DHT22;9477;51.414;10.362;2023-03-21T09:53:40;18.80;76.20
18694;DHT22;9477;51.414;10.362;2023-03-21T09:55:44;19.00;75.90
18694;DHT22;9477;51.414;10.362;2023-03-21T09:57:50;18.70;74.10
18694;DHT22;9477;51.414;10.362;2023-03-21T10:00:02;18.60;73.90
18694;DHT22;9477;51.414;10.362;2023-03-21T10:02:20;18.40;74.70
18694;DHT22;9477;51.414;10.362;2023-03-21T10:04:32;18.50;75.00
18694;DHT22;9477;51.414;10.362;2023-03-21T10:06:37;18.20;73.40
18694;DHT22;9477;51.414;10.362;2023-03-21T10:08:44;18.30;74.80
18694;DHT22;9477;51.414;10.362;2023-03-21T10:10:51;18.40;74.30
18694;DHT22;9477;51.414;10.362;2023-03-21T10:12:55;18.50;74.90
18694;DHT22;9477;51.414;10.362;2023-03-21T10:15:00;18.60;74.60
18694;DHT22;9477;51.414;10.362;2023-03-21T10:17:18;18.70;74.90
18694;DHT22;9477;51.414;10.362;2023-03-21T10:19:26;18.70;73.40
18694;DHT22;9477;51.414;10.362;2023-03-21T10:21:29;18.70;73.80
18694;DHT22;9477;51.414;10.362;2023-03-21T10:23:54;18.80;73.70
18694;DHT22;9477;51.414;10.362;2023-03-21T10:26:01;18.70;73.20
18694;DHT22;9477;51.414;10.362;2023-03-21T10:28:06;18.70;73.20
18694;DHT22;9477;51.414;10.362;2023-03-21T10:30:23;18.80;73.70
18694;DHT22;9477;51.414;10.362;2023-03-21T10:32:27;19.00;73.30
18694;DHT22;9477;51.414;10.362;2023-03-21T10:34:33;18.90;72.90
18694;DHT22;9477;51.414;10.362;2023-03-21T10:36:37;19.10;73.60
18694;DHT22;9477;51.414;10.362;2023-03-21T10:38:44;19.20;73.30
18694;DHT22;9477;51.414;10.362;2023-03-21T10:40:47;19.10;72.80
18694;DHT22;9477;51.414;10.362;2023-03-21T10:42:52;19.20;73.30
18694;DHT22;9477;51.414;10.362;2023-03-21T10:44:56;19.40;73.00
18694;DHT22;9477;51.414;10.362;2023-03-21T10:47:05;19.40;73.10
18694;DHT22;9477;51.414;10.362;2023-03-21T10:49:08;19.50;72.30
18694;DHT22;9477;51.414;10.362;2023-03-21T10:51:16;19.60;72.60
18694;DHT22;9477;51.414;10.362;2023-03-21T10:53:22;19.70;71.80
18694;DHT22;9477;51.414;10.362;2023-03-21T10:55:30;19.90;72.70
18694;DHT22;9477;51.414;10.362;2023-03-21T10:57:34;20.20;72.60
18694;DHT22;9477;51.414;10.362;2023-03-21T10:59:42;20.40;72.30
18694;DHT22;9477;51.414;10.362;2023-03-21T11:01:49;20.50;72.40
18694;DHT22;9477;51.414;10.362;2023-03-21T11:03:57;20.60;71.80
18694;DHT22;9477;51.414;10.362;2023-03-21T11:06:04;20.80;71.60
18694;DHT22;9477;51.414;10.362;2023-03-21T11:08:10;20.50;70.70
18694;DHT22;9477;51.414;10.362;2023-03-21T11:10:15;20.50;71.00
18694;DHT22;9477;51.414;10.362;2023-03-21T11:12:32;20.70;71.30
18694;DHT22;9477;51.414;10.362;2023-03-21T11:14:40;20.70;70.80
18694;DHT22;9477;51.414;10.362;2023-03-21T11:16:43;20.60;70.10
18694;DHT22;9477;51.414;10.362;2023-03-21T11:18:49;20.70;70.70
18694;DHT22;9477;51.414;10.362;2023-03-21T11:20:55;20.60;70.40
18694;DHT22;9477;51.414;10.362;2023-03-21T11:23:02;20.60;69.80
18694;DHT22;9477;51.414;10.362;2023-03-21T11:25:07;20.40;69.30
18694;DHT22;9477;51.414;10.362;2023-03-21T11:27:12;20.30;69.70
18694;DHT22;9477;51.414;10.362;2023-03-21T11:29:22;20.30;70.20
18694;DHT22;9477;51.414;10.362;2023-03-21T11:31:36;20.20;70.60
18694;DHT22;9477;51.414;10.362;2023-03-21T11:33:42;20.10;70.40
18694;DHT22;9477;51.414;10.362;2023-03-21T11:35:59;20.10;70.40
18694;DHT22;9477;51.414;10.362;2023-03-21T11:38:03;20.10;70.50
18694;DHT22;9477;51.414;10.362;2023-03-21T11:40:18;20.10;70.70
18694;DHT22;9477;51.414;10.362;2023-03-21T11:42:29;20.10;70.70
18694;DHT22;9477;51.414;10.362;2023-03-21T11:44:34;20.00;70.20
18694;DHT22;9477;51.414;10.362;2023-03-21T11:46:42;20.00;70.60
18694;DHT22;9477;51.414;10.362;2023-03-21T11:48:46;19.80;70.20
18694;DHT22;9477;51.414;10.362;2023-03-21T11:50:54;19.90;70.60
18694;DHT22;9477;51.414;10.362;2023-03-21T11:53:14;19.80;70.50
18694;DHT22;9477;51.414;10.362;2023-03-21T11:55:30;19.90;70.80
18694;DHT22;9477;51.414;10.362;2023-03-21T11:57:39;20.10;70.80
18694;DHT22;9477;51.414;10.362;2023-03-21T11:59:47;20.10;70.30
18694;DHT22;9477;51.414;10.362;2023-03-21T12:02:02;20.10;70.30
18694;DHT22;9477;51.414;10.362;2023-03-21T12:04:19;20.00;69.80
18694;DHT22;9477;51.414;10.362;2023-03-21T12:06:27;19.70;69.70
18694;DHT22;9477;51.414;10.362;2023-03-21T12:08:39;19.50;69.50
18694;DHT22;9477;51.414;10.362;2023-03-21T12:10:50;19.50;70.90
18694;DHT22;9477;51.414;10.362;2023-03-21T12:13:03;19.70;71.20
18694;DHT22;9477;51.414;10.362;2023-03-21T12:15:17;19.70;70.90
18694;DHT22;9477;51.414;10.362;2023-03-21T12:17:31;19.60;70.30
18694;DHT22;9477;51.414;10.362;2023-03-21T12:19:57;19.50;70.30
18694;DHT22;9477;51.414;10.362;2023-03-21T12:22:09;19.30;70.50
18694;DHT22;9477;51.414;10.362;2023-03-21T12:24:18;19.40;71.40
18694;DHT22;9477;51.414;10.362;2023-03-21T12:26:24;19.30;71.00
18694;DHT22;9477;51.414;10.362;2023-03-21T12:28:38;19.30;71.00
18694;DHT22;9477;51.414;10.362;2023-03-21T12:30:52;19.40;71.10
18694;DHT22;9477;51.414;10.362;2023-03-21T12:33:17;19.10;70.50
18694;DHT22;9477;51.414;10.362;2023-03-21T12:35:34;19.20;71.10
18694;DHT22;9477;51.414;10.362;2023-03-21T12:37:50;19.10;70.80
18694;DHT22;9477;51.414;10.362;2023-03-21T12:40:08;19.00;71.30
18694;DHT22;9477;51.414;10.362;2023-03-21T12:42:32;19.10;71.60
18694;DHT22;9477;51.414;10.362;2023-03-21T12:44:42;19.00;71.40
18694;DHT22;9477;51.414;10.362;2023-03-21T12:46:50;18.90;71.50
18694;DHT22;9477;51.414;10.362;2023-03-21T12:48:58;18.80;71.60
18694;DHT22;9477;51.414;10.362;2023-03-21T12:51:04;18.80;71.70
18694;DHT22;9477;51.414;10.362;2023-03-21T12:53:29;18.70;71.90
18694;DHT22;9477;51.414;10.362;2023-03-21T12:55:38;18.60;72.20
18694;DHT22;9477;51.414;10.362;2023-03-21T12:57:46;18.20;71.50
18694;DHT22;9477;51.414;10.362;2023-03-21T13:00:02;18.20;71.80
18694;DHT22;9477;51.414;10.362;2023-03-21T13:02:17;17.90;72.60
18694;DHT22;9477;51.414;10.362;2023-03-21T13:04:41;18.10;73.10
18694;DHT22;9477;51.414;10.362;2023-03-21T13:06:46;17.80;73.00
18694;DHT22;9477;51.414;10.362;2023-03-21T13:08:53;17.90;73.40
18694;DHT22;9477;51.414;10.362;2023-03-21T13:11:00;17.90;73.40
18694;DHT22;9477;51.414;10.362;2023-03-21T13:13:09;17.90;73.70
18694;DHT22;9477;51.414;10.362;2023-03-21T13:18:01;17.90;74.20
18694;DHT22;9477;51.414;10.362;2023-03-21T13:20:12;18.10;74.20
18694;DHT22;9477;51.414;10.362;2023-03-21T13:22:22;18.00;74.00
18694;DHT22;9477;51.414;10.362;2023-03-21T13:24:32;17.70;74.10
18694;DHT22;9477;51.414;10.362;2023-03-21T13:26:40;17.70;74.80
18694;DHT22;9477;51.414;10.362;2023-03-21T13:28:46;17.80;74.50
18694;DHT22;9477;51.414;10.362;2023-03-21T13:30:49;17.90;74.80
18694;DHT22;9477;51.414;10.362;2023-03-21T13:33:02;17.90;74.60
18694;DHT22;9477;51.414;10.362;2023-03-21T13:35:14;18.00;74.50